sensor_id;sensor_type;location;lat;lon;timestamp;temperature;humidity
19888;DHT22;10106;51.332;12.336;2023-06-19T04:22:54;19.40;99.90
19888;DHT22;10106;51.332;12.336;2023-06-19T04:25:21;19.50;99.90
19888;DHT22;10106;51.332;12.336;2023-06-19T04:27:47;19.50;99.90
19888;DHT22;10106;51.332;12.336;2023-06-19T04:30:13;19.50;99.90
19888;DHT22;10106;51.332;12.336;2023-06-19T04:32:38;19.50;99.90
19888;DHT22;10106;51.332;12.336;2023-06-19T04:35:09;19.70;99.90
19888;DHT22;10106;51.332;12.336;2023-06-19T04:37:35;19.70;99.90
19888;DHT22;10106;51.332;12.336;2023-06-19T04:40:01;19.80;99.90
19888;DHT22;10106;51.332;12.336;2023-06-19T04:42:28;19.90;99.90
19888;DHT22;10106;51.332;12.336;2023-06-19T04:44:54;20.20;99.90
19888;DHT22;10106;51.332;12.336;2023-06-19T04:47:22;20.30;99.90
19888;DHT22;10106;51.332;12.336;2023-06-19T04:49:47;20.50;99.90
19888;DHT22;10106;51.332;12.336;2023-06-19T04:52:13;20.60;99.90
19888;DHT22;10106;51.332;12.336;2023-06-19T04:54:39;21.00;99.90
19888;DHT22;10106;51.332;12.336;2023-06-19T04:57:10;21.50;99.90
19888;DHT22;10106;51.332;12.336;2023-06-19T04:59:39;21.70;99.90
19888;DHT22;10106;51.332;12.336;2023-06-19T05:07:16;21.80;99.90
19888;DHT22;10106;51.332;12.336;2023-06-19T05:09:43;21.70;99.90
19888;DHT22;10106;51.332;12.336;2023-06-19T05:12:09;21.70;99.90
19888;DHT22;10106;51.332;12.336;2023-06-19T05:14:35;21.50;99.90
19888;DHT22;10106;51.332;12.336;2023-06-19T05:17:00;21.20;99.90
19888;DHT22;10106;51.332;12.336;2023-06-19T05:19:26;21.00;99.90
19888;DHT22;10106;51.332;12.336;2023-06-19T05:21:51;20.80;99.90
19888;DHT22;10106;51.332;12.336;2023-06-19T05:24:17;20.70;99.90
19888;DHT22;10106;51.332;12.336;2023-06-19T05:26:43;20.60;99.90
19888;DHT22;10106;51.332;12.336;2023-06-19T05:29:08;20.50;99.90
19888;DHT22;10106;51.332;12.336;2023-06-19T05:31:34;20.40;99.90
19888;DHT22;10106;51.332;12.336;2023-06-19T05:34:01;20.40;99.90
19888;DHT22;10106;51.332;12.336;2023-06-19T05:36:26;20.40;99.90
19888;DHT22;10106;51.332;12.336;2023-06-19T05:38:52;20.30;99.90
19888;DHT22;10106;51.332;12.336;2023-06-19T05:41:17;20.30;99.90
19888;DHT22;10106;51.332;12.336;2023-06-19T05:43:43;20.30;99.90
19888;DHT22;10106;51.332;12.336;2023-06-19T05:46:09;20.30;99.90
19888;DHT22;10106;51.332;12.336;2023-06-19T05:48:34;20.20;99.90
19888;DHT22;10106;51.332;12.336;2023-06-19T05:51:00;20.30;99.90
19888;DHT22;10106;51.332;12.336;2023-06-19T05:53:25;20.30;99.90
19888;DHT22;10106;51.332;12.336;2023-06-19T05:55:51;20.20;99.90
19888;DHT22;10106;51.332;12.336;2023-06-19T05:58:16;20.20;99.90
19888;DHT22;10106;51.332;12.336;2023-06-19T06:00:45;20.10;99.90
19888;DHT22;10106;51.332;12.336;2023-06-19T06:03:11;20.20;99.90
19888;DHT22;10106;51.332;12.336;2023-06-19T06:05:36;20.10;99.90
19888;DHT22;10106;51.332;12.336;2023-06-19T06:08:02;20.00;99.90
19888;DHT22;10106;51.332;12.336;2023-06-19T06:10:27;20.00;99.90
19888;DHT22;10106;51.332;12.336;2023-06-19T06:12:53;20.00;99.90
19888;DHT22;10106;51.332;12.336;2023-06-19T06:15:19;20.10;99.90
19888;DHT22;10106;51.332;12.336;2023-06-19T06:17:44;20.10;99.90
19888;DHT22;10106;51.332;12.336;2023-06-19T06:20:11;20.10;99.90
19888;DHT22;10106;51.332;12.336;2023-06-19T06:22:41;20.10;99.90
19888;DHT22;10106;51.332;12.336;2023-06-19T06:25:06;20.10;99.90
19888;DHT22;10106;51.332;12.336;2023-06-19T06:27:33;20.00;99.90
19888;DHT22;10106;51.332;12.336;2023-06-19T06:30:02;19.90;99.90
19888;DHT22;10106;51.332;12.336;2023-06-19T06:32:28;19.90;99.90
19888;DHT22;10106;51.332;12.336;2023-06-19T06:34:54;19.80;99.90
19888;DHT22;10106;51.332;12.336;2023-06-19T06:37:20;19.70;99.90
19888;DHT22;10106;51.332;12.336;2023-06-19T06:39:48;19.70;99.90
19888;DHT22;10106;51.332;12.336;2023-06-19T06:42:14;19.60;99.90
19888;DHT22;10106;51.332;12.336;2023-06-19T06:44:40;19.50;99.90
19888;DHT22;10106;51.332;12.336;2023-06-19T06:47:05;19.50;99.90
19888;DHT22;10106;51.332;12.336;2023-06-19T06:49:31;19.50;99.90
19888;DHT22;10106;51.332;12.336;2023-06-19T06:51:56;19.50;99.90
19888;DHT22;10106;51.332;12.336;2023-06-19T06:54:22;19.50;99.90
19888;DHT22;10106;51.332;12.336;2023-06-19T06:56:48;19.60;99.90
19888;DHT22;10106;51.332;12.336;2023-06-19T06:59:14;19.60;99.90
19888;DHT22;10106;51.332;12.336;2023-06-19T07:01:42;19.80;99.90
19888;DHT22;10106;51.332;12.336;2023-06-19T07:04:08;19.80;99.90
19888;DHT22;10106;51.332;12.336;2023-06-19T07:06:33;19.80;99.90
19888;DHT22;10106;51.332;12.336;2023-06-19T07:08:59;19.80;99.90
19888;DHT22;10106;51.332;12.336;2023-06-19T07:11:25;19.80;99.90
19888;DHT22;10106;51.332;12.336;2023-06-19T07:13:50;19.80;99.90
19888;DHT22;10106;51.332;12.336;2023-06-19T07:16:16;19.90;99.90
19888;DHT22;10106;51.332;12.336;2023-06-19T07:18:41;20.10;99.90
19888;DHT22;10106;51.332;12.336;2023-06-19T07:21:13;20.20;99.90
19888;DHT22;10106;51.332;12.336;2023-06-19T07:23:39;20.30;99.90
19888;DHT22;10106;51.332;12.336;2023-06-19T07:26:05;20.40;99.90
19888;DHT22;10106;51.332;12.336;2023-06-19T07:28:31;20.50;99.90
19888;DHT22;10106;51.332;12.336;2023-06-19T07:30:56;20.50;99.90
19888;DHT22;10106;51.332;12.336;2023-06-19T07:33:22;20.50;99.90
19888;DHT22;10106;51.332;12.336;2023-06-19T07:35:48;20.70;99.90
19888;DHT22;10106;51.332;12.336;2023-06-19T07:38:13;20.80;99.90
19888;DHT22;10106;51.332;12.336;2023-06-19T07:40:39;20.90;99.90
19888;DHT22;10106;51.332;12.336;2023-06-19T07:43:04;21.10;99.90
19888;DHT22;10106;51.332;12.336;2023-06-19T07:45:30;21.20;99.90
19888;DHT22;10106;51.332;12.336;2023-06-19T07:47:56;21.20;99.90
19888;DHT22;10106;51.332;12.336;2023-06-19T07:50:22;21.30;99.90
19888;DHT22;10106;51.332;12.336;2023-06-19T07:52:48;21.50;99.90
19888;DHT22;10106;51.332;12.336;2023-06-19T07:55:13;21.60;99.90
19888;DHT22;10106;51.332;12.336;2023-06-19T07:57:39;21.80;99.90
19888;DHT22;10106;51.332;12.336;2023-06-19T08:00:04;22.20;99.90
19888;DHT22;10106;51.332;12.336;2023-06-19T08:02:36;22.50;99.90
19888;DHT22;10106;51.332;12.336;2023-06-19T08:05:02;22.80;99.90
19888;DHT22;10106;51.332;12.336;2023-06-19T08:07:28;23.10;99.90
19888;DHT22;10106;51.332;12.336;2023-06-19T08:09:54;23.20;99.90
19888;DHT22;10106;51.332;12.336;2023-06-19T08:12:19;23.30;99.90
19888;DHT22;10106;51.332;12.336;2023-06-19T08:14:45;23.40;99.90
19888;DHT22;10106;51.332;12.336;2023-06-19T08:17:10;23.40;99.90
19888;DHT22;10106;51.332;12.336;2023-06-19T08:19:36;23.40;99.90
19888;DHT22;10106;51.332;12.336;2023-06-19T08:22:05;23.40;99.90
19888;DHT22;10106;51.332;12.336;2023-06-19T08:24:30;23.20;99.90
19888;DHT22;10106;51.332;12.336;2023-06-19T08:26:56;23.40;99.90
19888;DHT22;10106;51.332;12.336;2023-06-19T08:29:21;23.90;99.90
19888;DHT22;10106;51.332;12.336;2023-06-19T08:31:48;24.60;99.90
19888;DHT22;10106;51.332;12.336;2023-06-19T08:34:13;25.50;99.90
19888;DHT22;10106;51.332;12.336;2023-06-19T08:36:39;26.60;99.90
19888;DHT22;10106;51.332;12.336;2023-06-19T08:39:04;27.70;99.90
19888;DHT22;10106;51.332;12.336;2023-06-19T08:41:30;29.00;99.10
19888;DHT22;10106;51.332;12.336;2023-06-19T08:43:56;29.10;97.00
19888;DHT22;10106;51.332;12.336;2023-06-19T08:46:21;30.20;93.90
19888;DHT22;10106;51.332;12.336;2023-06-19T08:48:47;31.00;92.60
19888;DHT22;10106;51.332;12.336;2023-06-19T08:51:13;31.30;90.50
19888;DHT22;10106;51.332;12.336;2023-06-19T08:53:48;31.40;87.40
19888;DHT22;10106;51.332;12.336;2023-06-19T08:56:16;32.40;83.50
19888;DHT22;10106;51.332;12.336;2023-06-19T08:58:42;34.10;78.30
19888;DHT22;10106;51.332;12.336;2023-06-19T09:01:08;35.50;72.60
19888;DHT22;10106;51.332;12.336;2023-06-19T09:03:34;35.90;65.70
19888;DHT22;10106;51.332;12.336;2023-06-19T09:06:03;34.70;62.80
19888;DHT22;10106;51.332;12.336;2023-06-19T09:08:28;34.50;63.80
19888;DHT22;10106;51.332;12.336;2023-06-19T09:10:58;35.40;62.20
19888;DHT22;10106;51.332;12.336;2023-06-19T09:13:24;36.60;59.60
19888;DHT22;10106;51.332;12.336;2023-06-19T09:15:57;37.60;56.60
19888;DHT22;10106;51.332;12.336;2023-06-19T09:18:23;36.60;51.60
19888;DHT22;10106;51.332;12.336;2023-06-19T09:20:53;35.00;52.10
19888;DHT22;10106;51.332;12.336;2023-06-19T09:23:19;33.50;54.30
19888;DHT22;10106;51.332;12.336;2023-06-19T09:25:48;33.10;55.10
19888;DHT22;10106;51.332;12.336;2023-06-19T09:28:18;34.20;55.30
19888;DHT22;10106;51.332;12.336;2023-06-19T09:31:00;35.70;54.00
19888;DHT22;10106;51.332;12.336;2023-06-19T09:33:26;37.00;52.20
19888;DHT22;10106;51.332;12.336;2023-06-19T09:35:53;36.00;50.10
19888;DHT22;10106;51.332;12.336;2023-06-19T09:38:19;34.80;51.80
19888;DHT22;10106;51.332;12.336;2023-06-19T09:40:46;33.60;53.50
19888;DHT22;10106;51.332;12.336;2023-06-19T09:43:13;33.20;54.10
19888;DHT22;10106;51.332;12.336;2023-06-19T09:45:41;32.30;55.00
19888;DHT22;10106;51.332;12.336;2023-06-19T09:48:06;31.50;56.20
19888;DHT22;10106;51.332;12.336;2023-06-19T09:50:35;31.10;57.90
19888;DHT22;10106;51.332;12.336;2023-06-19T09:53:03;31.00;58.10
19888;DHT22;10106;51.332;12.336;2023-06-19T09:55:30;30.90;58.70
19888;DHT22;10106;51.332;12.336;2023-06-19T09:57:56;31.10;58.80
19888;DHT22;10106;51.332;12.336;2023-06-19T10:00:22;31.40;58.70
19888;DHT22;10106;51.332;12.336;2023-06-19T10:02:51;31.70;58.00
19888;DHT22;10106;51.332;12.336;2023-06-19T10:05:27;31.40;58.20
19888;DHT22;10106;51.332;12.336;2023-06-19T10:07:53;31.30;58.20
19888;DHT22;10106;51.332;12.336;2023-06-19T10:10:26;31.20;58.20
19888;DHT22;10106;51.332;12.336;2023-06-19T10:12:57;31.50;58.10
19888;DHT22;10106;51.332;12.336;2023-06-19T10:15:26;32.40;57.00
19888;DHT22;10106;51.332;12.336;2023-06-19T10:18:02;32.30;57.20
19888;DHT22;10106;51.332;12.336;2023-06-19T10:20:29;32.30;56.80
19888;DHT22;10106;51.332;12.336;2023-06-19T10:23:08;31.50;57.70
19888;DHT22;10106;51.332;12.336;2023-06-19T10:25:45;31.30;58.40
19888;DHT22;10106;51.332;12.336;2023-06-19T10:28:21;31.50;58.60
19888;DHT22;10106;51.332;12.336;2023-06-19T10:33:23;32.40;57.10
19888;DHT22;10106;51.332;12.336;2023-06-19T10:35:49;32.30;56.40
19888;DHT22;10106;51.332;12.336;2023-06-19T10:38:15;32.00;56.70
19888;DHT22;10106;51.332;12.336;2023-06-19T10:40:41;31.40;56.30
19888;DHT22;10106;51.332;12.336;2023-06-19T10:43:08;31.30;56.80
19888;DHT22;10106;51.332;12.336;2023-06-19T10:45:33;31.40;56.80
19888;DHT22;10106;51.332;12.336;2023-06-19T10:48:03;31.30;56.70
19888;DHT22;10106;51.332;12.336;2023-06-19T10:50:33;31.70;56.60
19888;DHT22;10106;51.332;12.336;2023-06-19T10:53:00;32.10;56.00
19888;DHT22;10106;51.332;12.336;2023-06-19T10:55:26;32.30;55.10
19888;DHT22;10106;51.332;12.336;2023-06-19T10:57:51;32.20;54.80
19888;DHT22;10106;51.332;12.336;2023-06-19T11:00:27;32.00;54.60
19888;DHT22;10106;51.332;12.336;2023-06-19T11:02:53;31.80;55.40
19888;DHT22;10106;51.332;12.336;2023-06-19T11:05:21;31.70;56.30
19888;DHT22;10106;51.332;12.336;2023-06-19T11:07:50;31.50;56.80
19888;DHT22;10106;51.332;12.336;2023-06-19T11:10:27;31.40;57.00
19888;DHT22;10106;51.332;12.336;2023-06-19T11:12:57;31.00;56.90
19888;DHT22;10106;51.332;12.336;2023-06-19T11:15:29;31.30;56.00
19888;DHT22;10106;51.332;12.336;2023-06-19T11:17:55;31.20;55.80
19888;DHT22;10106;51.332;12.336;2023-06-19T11:20:21;30.90;55.90
19888;DHT22;10106;51.332;12.336;2023-06-19T11:22:47;30.90;55.90
19888;DHT22;10106;51.332;12.336;2023-06-19T11:25:12;30.50;55.60
19888;DHT22;10106;51.332;12.336;2023-06-19T11:27:39;30.70;56.60
19888;DHT22;10106;51.332;12.336;2023-06-19T11:30:05;31.00;56.10
19888;DHT22;10106;51.332;12.336;2023-06-19T11:32:33;31.00;55.80
19888;DHT22;10106;51.332;12.336;2023-06-19T11:35:04;31.00;56.30
19888;DHT22;10106;51.332;12.336;2023-06-19T11:37:32;31.30;56.40
19888;DHT22;10106;51.332;12.336;2023-06-19T11:39:59;31.40;56.80
19888;DHT22;10106;51.332;12.336;2023-06-19T11:42:25;31.50;55.90
19888;DHT22;10106;51.332;12.336;2023-06-19T11:45:01;31.70;55.70
19888;DHT22;10106;51.332;12.336;2023-06-19T11:47:33;31.60;55.40
19888;DHT22;10106;51.332;12.336;2023-06-19T11:50:00;31.50;55.50
19888;DHT22;10106;51.332;12.336;2023-06-19T11:52:28;31.60;55.10
19888;DHT22;10106;51.332;12.336;2023-06-19T11:54:54;31.40;55.40
19888;DHT22;10106;51.332;12.336;2023-06-19T11:57:19;31.60;55.10
19888;DHT22;10106;51.332;12.336;2023-06-19T11:59:45;31.50;55.30
19888;DHT22;10106;51.332;12.336;2023-06-19T12:02:12;31.30;55.60
19888;DHT22;10106;51.332;12.336;2023-06-19T12:04:37;31.30;56.10
19888;DHT22;10106;51.332;12.336;2023-06-19T12:07:03;31.10;56.40
19888;DHT22;10106;51.332;12.336;2023-06-19T12:09:32;31.10;56.20
19888;DHT22;10106;51.332;12.336;2023-06-19T12:11:59;31.10;56.00
19888;DHT22;10106;51.332;12.336;2023-06-19T12:14:27;30.70;56.60
19888;DHT22;10106;51.332;12.336;2023-06-19T12:16:53;30.90;56.60
19888;DHT22;10106;51.332;12.336;2023-06-19T12:19:18;30.90;56.50
19888;DHT22;10106;51.332;12.336;2023-06-19T12:21:45;31.10;56.90
19888;DHT22;10106;51.332;12.336;2023-06-19T12:24:12;31.30;57.00
19888;DHT22;10106;51.332;12.336;2023-06-19T12:26:38;31.30;57.20
19888;DHT22;10106;51.332;12.336;2023-06-19T12:29:06;31.60;57.20
19888;DHT22;10106;51.332;12.336;2023-06-19T12:31:33;31.50;56.70
19888;DHT22;10106;51.332;12.336;2023-06-19T12:33:59;31.30;56.90
19888;DHT22;10106;51.332;12.336;2023-06-19T12:36:26;31.20;56.50
19888;DHT22;10106;51.332;12.336;2023-06-19T12:38:53;31.30;57.00
19888;DHT22;10106;51.332;12.336;2023-06-19T12:41:19;31.00;56.00
19888;DHT22;10106;51.332;12.336;2023-06-19T12:43:45;31.00;55.30
19888;DHT22;10106;51.332;12.336;2023-06-19T12:46:13;31.00;54.30
19888;DHT22;10106;51.332;12.336;2023-06-19T12:48:40;30.70;53.70
19888;DHT22;10106;51.332;12.336;2023-06-19T12:51:06;30.50;52.50
19888;DHT22;10106;51.332;12.336;2023-06-19T12:53:31;30.60;53.10
19888;DHT22;10106;51.332;12.336;2023-06-19T12:55:57;30.70;53.90
19888;DHT22;10106;51.332;12.336;2023-06-19T12:58:23;30.80;53.70
19888;DHT22;10106;51.332;12.336;2023-06-19T13:00:48;31.10;53.90
19888;DHT22;10106;51.332;12.336;2023-06-19T13:03:17;31.30;53.70
19888;DHT22;10106;51.332;12.336;2023-06-19T13:05:44;31.40;54.10
19888;DHT22;10106;51.332;12.336;2023-06-19T13:08:09;31.30;54.20
19888;DHT22;10106;51.332;12.336;2023-06-19T13:10:35;31.30;54.80
19888;DHT22;10106;51.332;12.336;2023-06-19T13:13:01;31.40;54.80
19888;DHT22;10106;51.332;12.336;2023-06-19T13:15:26;31.40;54.20
19888;DHT22;10106;51.332;12.336;2023-06-19T13:17:53;31.20;54.30
19888;DHT22;10106;51.332;12.336;2023-06-19T13:20:18;31.30;54.20
19888;DHT22;10106;51.332;12.336;2023-06-19T13:22:44;31.40;54.30
19888;DHT22;10106;51.332;12.336;2023-06-19T13:25:10;31.90;54.30
19888;DHT22;10106;51.332;12.336;2023-06-19T13:27:36;31.90;54.30
19888;DHT22;10106;51.332;12.336;2023-06-19T13:30:01;32.10;54.30
19888;DHT22;10106;51.332;12.336;2023-06-19T13:32:27;32.20;53.80
19888;DHT22;10106;51.332;12.336;2023-06-19T13:34:53;32.00;53.80
19888;DHT22;10106;51.332;12.336;2023-06-19T13:37:19;31.80;53.40
19888;DHT22;10106;51.332;12.336;2023-06-19T13:39:45;31.70;53.90
19888;DHT22;10106;51.332;12.336;2023-06-19T13:42:10;31.50;54.00
19888;DHT22;10106;51.332;12.336;2023-06-19T13:44:36;31.60;54.40
19888;DHT22;10106;51.332;12.336;2023-06-19T13:47:02;31.50;55.20
19888;DHT22;10106;51.332;12.336;2023-06-19T13:49:28;31.20;55.50
19888;DHT22;10106;51.332;12.336;2023-06-19T13:51:54;31.20;56.30
19888;DHT22;10106;51.332;12.336;2023-06-19T13:54:20;31.50;56.70
19888;DHT22;10106;51.332;12.336;2023-06-19T13:56:46;32.00;56.50
19888;DHT22;10106;51.332;12.336;2023-06-19T13:59:12;32.10;56.10
19888;DHT22;10106;51.332;12.336;2023-06-19T14:01:38;32.00;56.10
19888;DHT22;10106;51.332;12.336;2023-06-19T14:04:04;32.10;56.60
19888;DHT22;10106;51.332;12.336;2023-06-19T14:06:30;31.90;56.40
19888;DHT22;10106;51.332;12.336;2023-06-19T14:08:55;31.70;56.90
19888;DHT22;10106;51.332;12.336;2023-06-19T14:11:21;31.70;57.30
19888;DHT22;10106;51.332;12.336;2023-06-19T14:13:47;31.70;57.30
19888;DHT22;10106;51.332;12.336;2023-06-19T14:16:13;31.50;57.50
19888;DHT22;10106;51.332;12.336;2023-06-19T14:18:42;31.50;57.50
19888;DHT22;10106;51.332;12.336;2023-06-19T14:21:09;31.40;58.10
19888;DHT22;10106;51.332;12.336;2023-06-19T14:23:34;31.30;58.00
19888;DHT22;10106;51.332;12.336;2023-06-19T14:26:13;31.50;57.40
19888;DHT22;10106;51.332;12.336;2023-06-19T14:28:41;31.50;57.30
19888;DHT22;10106;51.332;12.336;2023-06-19T14:31:10;31.60;57.40
19888;DHT22;10106;51.332;12.336;2023-06-19T14:33:36;31.90;56.60
19888;DHT22;10106;51.332;12.336;2023-06-19T14:36:03;31.80;56.20
19888;DHT22;10106;51.332;12.336;2023-06-19T14:41:28;31.60;57.10
19888;DHT22;10106;51.332;12.336;2023-06-19T14:43:57;31.70;57.70
19888;DHT22;10106;51.332;12.336;2023-06-19T14:46:29;31.80;56.80
19888;DHT22;10106;51.332;12.336;2023-06-19T14:48:58;31.80;56.90
19888;DHT22;10106;51.332;12.336;2023-06-19T14:51:29;31.90;56.90
19888;DHT22;10106;51.332;12.336;2023-06-19T14:54:01;32.00;56.90
19888;DHT22;10106;51.332;12.336;2023-06-19T14:56:28;32.00;56.90
19888;DHT22;10106;51.332;12.336;2023-06-19T14:58:58;32.10;56.80
19888;DHT22;10106;51.332;12.336;2023-06-19T15:01:37;32.10;56.10
19888;DHT22;10106;51.332;12.336;2023-06-19T15:04:06;31.80;56.80
19888;DHT22;10106;51.332;12.336;2023-06-19T15:06:32;31.70;57.20
19888;DHT22;10106;51.332;12.336;2023-06-19T15:08:58;31.70;57.20
19888;DHT22;10106;51.332;12.336;2023-06-19T15:11:23;31.50;57.30
19888;DHT22;10106;51.332;12.336;2023-06-19T15:13:49;31.40;58.30
19888;DHT22;10106;51.332;12.336;2023-06-19T15:16:15;31.20;58.70
19888;DHT22;10106;51.332;12.336;2023-06-19T15:18:42;31.00;58.60
19888;DHT22;10106;51.332;12.336;2023-06-19T15:21:08;31.00;59.60
19888;DHT22;10106;51.332;12.336;2023-06-19T15:23:34;30.90;58.70
19888;DHT22;10106;51.332;12.336;2023-06-19T15:26:00;31.00;59.00
19888;DHT22;10106;51.332;12.336;2023-06-19T15:28:25;30.90;58.80
19888;DHT22;10106;51.332;12.336;2023-06-19T15:30:52;30.80;59.10
19888;DHT22;10106;51.332;12.336;2023-06-19T15:33:18;30.80;59.00
19888;DHT22;10106;51.332;12.336;2023-06-19T15:35:47;30.80;59.20
19888;DHT22;10106;51.332;12.336;2023-06-19T15:38:12;30.70;59.40
19888;DHT22;10106;51.332;12.336;2023-06-19T15:40:38;30.60;59.60
19888;DHT22;10106;51.332;12.336;2023-06-19T15:43:05;30.60;60.00
19888;DHT22;10106;51.332;12.336;2023-06-19T15:45:30;30.40;60.50
19888;DHT22;10106;51.332;12.336;2023-06-19T15:47:56;30.30;60.90
19888;DHT22;10106;51.332;12.336;2023-06-19T15:50:22;30.20;61.40
19888;DHT22;10106;51.332;12.336;2023-06-19T15:52:47;30.00;61.80
19888;DHT22;10106;51.332;12.336;2023-06-19T15:55:13;29.70;61.90
19888;DHT22;10106;51.332;12.336;2023-06-19T15:57:39;29.50;62.70
19888;DHT22;10106;51.332;12.336;2023-06-19T16:00:05;29.40;63.60
19888;DHT22;10106;51.332;12.336;2023-06-19T16:02:31;29.30;64.00
19888;DHT22;10106;51.332;12.336;2023-06-19T16:04:57;29.30;64.00
19888;DHT22;10106;51.332;12.336;2023-06-19T16:07:22;29.30;64.90
19888;DHT22;10106;51.332;12.336;2023-06-19T16:09:51;29.50;64.50
19888;DHT22;10106;51.332;12.336;2023-06-19T16:12:19;29.50;64.50
19888;DHT22;10106;51.332;12.336;2023-06-19T16:14:45;29.50;64.90
19888;DHT22;10106;51.332;12.336;2023-06-19T16:17:11;29.40;65.30
19888;DHT22;10106;51.332;12.336;2023-06-19T16:19:36;29.40;65.00
19888;DHT22;10106;51.332;12.336;2023-06-19T16:22:06;29.20;65.20
19888;DHT22;10106;51.332;12.336;2023-06-19T16:24:32;29.10;65.20
19888;DHT22;10106;51.332;12.336;2023-06-19T16:26:57;29.10;65.70
19888;DHT22;10106;51.332;12.336;2023-06-19T16:29:24;29.00;66.00
19888;DHT22;10106;51.332;12.336;2023-06-19T16:31:50;28.90;66.50
19888;DHT22;10106;51.332;12.336;2023-06-19T16:34:15;28.80;66.40
19888;DHT22;10106;51.332;12.336;2023-06-19T16:36:41;28.80;67.00
19888;DHT22;10106;51.332;12.336;2023-06-19T16:39:07;28.80;67.30
19888;DHT22;10106;51.332;12.336;2023-06-19T16:41:35;28.80;67.60
19888;DHT22;10106;51.332;12.336;2023-06-19T16:44:03;28.70;67.30
19888;DHT22;10106;51.332;12.336;2023-06-19T16:46:29;28.70;67.30
19888;DHT22;10106;51.332;12.336;2023-06-19T16:48:55;28.50;68.00
19888;DHT22;10106;51.332;12.336;2023-06-19T16:51:21;28.50;67.90
19888;DHT22;10106;51.332;12.336;2023-06-19T16:53:47;28.50;68.50
19888;DHT22;10106;51.332;12.336;2023-06-19T16:56:12;28.40;68.70
19888;DHT22;10106;51.332;12.336;2023-06-19T16:58:38;28.40;69.20
19888;DHT22;10106;51.332;12.336;2023-06-19T17:01:03;28.30;68.80
19888;DHT22;10106;51.332;12.336;2023-06-19T17:03:29;28.40;69.40
19888;DHT22;10106;51.332;12.336;2023-06-19T17:05:55;28.30;69.20
19888;DHT22;10106;51.332;12.336;2023-06-19T17:08:21;28.30;69.40
19888;DHT22;10106;51.332;12.336;2023-06-19T17:10:46;28.30;69.80
19888;DHT22;10106;51.332;12.336;2023-06-19T17:13:12;28.20;69.70
19888;DHT22;10106;51.332;12.336;2023-06-19T17:15:40;28.20;70.70
19888;DHT22;10106;51.332;12.336;2023-06-19T17:18:06;28.20;70.40
19888;DHT22;10106;51.332;12.336;2023-06-19T17:20:34;28.20;71.20
19888;DHT22;10106;51.332;12.336;2023-06-19T17:22:59;28.10;71.00
19888;DHT22;10106;51.332;12.336;2023-06-19T17:25:25;28.10;71.00
19888;DHT22;10106;51.332;12.336;2023-06-19T17:27:54;28.10;70.80
19888;DHT22;10106;51.332;12.336;2023-06-19T17:30:20;28.10;71.40
19888;DHT22;10106;51.332;12.336;2023-06-19T17:32:45;28.10;71.20
19888;DHT22;10106;51.332;12.336;2023-06-19T17:35:11;28.10;71.00
19888;DHT22;10106;51.332;12.336;2023-06-19T17:37:37;28.20;71.50
19888;DHT22;10106;51.332;12.336;2023-06-19T17:40:07;28.20;71.40
19888;DHT22;10106;51.332;12.336;2023-06-19T17:42:41;28.20;71.30
19888;DHT22;10106;51.332;12.336;2023-06-19T17:45:07;28.20;71.50
19888;DHT22;10106;51.332;12.336;2023-06-19T17:47:33;28.20;71.30
19888;DHT22;10106;51.332;12.336;2023-06-19T17:49:58;28.20;72.30
19888;DHT22;10106;51.332;12.336;2023-06-19T17:52:31;28.20;72.30
19888;DHT22;10106;51.332;12.336;2023-06-19T17:57:53;28.00;72.90
19888;DHT22;10106;51.332;12.336;2023-06-19T18:00:39;28.00;72.30
19888;DHT22;10106;51.332;12.336;2023-06-19T18:03:05;27.90;74.00
19888;DHT22;10106;51.332;12.336;2023-06-19T18:05:39;27.70;76.50
19888;DHT22;10106;51.332;12.336;2023-06-19T18:08:05;27.60;77.90
19888;DHT22;10106;51.332;12.336;2023-06-19T18:10:30;27.40;79.70
19888;DHT22;10106;51.332;12.336;2023-06-19T18:12:56;27.30;82.50
19888;DHT22;10106;51.332;12.336;2023-06-19T18:15:24;27.10;82.30
19888;DHT22;10106;51.332;12.336;2023-06-19T18:17:50;27.00;83.70
19888;DHT22;10106;51.332;12.336;2023-06-19T18:20:16;26.90;84.90
19888;DHT22;10106;51.332;12.336;2023-06-19T18:25:33;26.60;88.40
19888;DHT22;10106;51.332;12.336;2023-06-19T18:27:59;26.60;90.50
19888;DHT22;10106;51.332;12.336;2023-06-19T18:30:28;26.40;91.30
19888;DHT22;10106;51.332;12.336;2023-06-19T18:32:54;26.30;92.40
19888;DHT22;10106;51.332;12.336;2023-06-19T18:35:32;26.20;93.20
19888;DHT22;10106;51.332;12.336;2023-06-19T18:37:58;26.20;93.70
19888;DHT22;10106;51.332;12.336;2023-06-19T18:40:26;26.10;93.60
19888;DHT22;10106;51.332;12.336;2023-06-19T18:42:51;26.00;93.70
19888;DHT22;10106;51.332;12.336;2023-06-19T18:45:17;26.00;94.30
19888;DHT22;10106;51.332;12.336;2023-06-19T18:47:42;25.90;94.50
19888;DHT22;10106;51.332;12.336;2023-06-19T18:50:09;25.90;94.80
19888;DHT22;10106;51.332;12.336;2023-06-19T18:52:36;25.80;95.00
19888;DHT22;10106;51.332;12.336;2023-06-19T18:55:02;25.80;95.40
19888;DHT22;10106;51.332;12.336;2023-06-19T18:57:29;25.70;95.70
19888;DHT22;10106;51.332;12.336;2023-06-19T18:59:56;25.70;96.10
19888;DHT22;10106;51.332;12.336;2023-06-19T19:02:25;25.60;96.50
19888;DHT22;10106;51.332;12.336;2023-06-19T19:04:54;25.50;96.80
19888;DHT22;10106;51.332;12.336;2023-06-19T19:07:20;25.50;97.80
19888;DHT22;10106;51.332;12.336;2023-06-19T19:09:48;25.40;97.70
19888;DHT22;10106;51.332;12.336;2023-06-19T19:12:16;25.30;97.90
19888;DHT22;10106;51.332;12.336;2023-06-19T19:14:41;25.30;98.40
19888;DHT22;10106;51.332;12.336;2023-06-19T19:17:07;25.30;98.80
19888;DHT22;10106;51.332;12.336;2023-06-19T19:19:32;25.20;99.00
19888;DHT22;10106;51.332;12.336;2023-06-19T19:21:58;25.10;99.50
19888;DHT22;10106;51.332;12.336;2023-06-19T19:24:24;25.00;99.70
19888;DHT22;10106;51.332;12.336;2023-06-19T19:26:49;25.00;99.90
19888;DHT22;10106;51.332;12.336;2023-06-19T19:29:15;24.90;99.90
19888;DHT22;10106;51.332;12.336;2023-06-19T19:31:43;24.80;99.90
19888;DHT22;10106;51.332;12.336;2023-06-19T19:34:09;24.70;99.90
19888;DHT22;10106;51.332;12.336;2023-06-19T19:36:35;24.60;99.90
19888;DHT22;10106;51.332;12.336;2023-06-19T19:39:22;24.60;99.90
19888;DHT22;10106;51.332;12.336;2023-06-19T19:42:05;24.50;99.90
19888;DHT22;10106;51.332;12.336;2023-06-19T19:44:30;24.40;99.90
19888;DHT22;10106;51.332;12.336;2023-06-19T19:46:56;24.40;99.90
19888;DHT22;10106;51.332;12.336;2023-06-19T19:49:22;24.30;99.90
19888;DHT22;10106;51.332;12.336;2023-06-19T19:51:48;24.20;99.90